| time (UTC) | temp C | wind direction | speed KPH | gust KPH | rain 1hr cm | rain 24hr cm | rain mn cm | humidity % | barometer mb |
| 20260505212006 | 21 | 332 | 3.2 | 11.3 | 0.00 | 0.00 | 0.00 | 30 | 1014.3 |
| 20260505211506 | 20 | 4 | 8.0 | 14.5 | 0.00 | 0.00 | 0.00 | 30 | 1014.3 |
| 20260505210506 | 21 | 341 | 0.0 | 8.0 | 0.00 | 0.00 | 0.00 | 28 | 1014.5 |
| 20260505205006 | 21 | 327 | 8.0 | 19.3 | 0.00 | 0.00 | 0.00 | 29 | 1014.6 |
| 20260505204506 | 21 | 316 | 3.2 | 12.9 | 0.00 | 0.00 | 0.00 | 27 | 1014.4 |
| 20260505204006 | 21 | 335 | 9.7 | 24.1 | 0.00 | 0.00 | 0.00 | 29 | 1014.5 |
| 20260505203507 | 21 | 325 | 11.3 | 22.5 | 0.00 | 0.00 | 0.00 | 30 | 1014.5 |
| 20260505203006 | 20 | 318 | 0.0 | 11.3 | 0.00 | 0.00 | 0.00 | 33 | 1014.4 |
| 20260505201506 | 20 | 348 | 6.4 | 11.3 | 0.00 | 0.00 | 0.00 | 30 | 1014.5 |
| 20260505201007 | 20 | 306 | 1.6 | 8.0 | 0.00 | 0.00 | 0.00 | 31 | 1014.6 |
| 20260505200506 | 21 | 305 | 0.0 | 8.0 | 0.00 | 0.00 | 0.00 | 31 | 1014.6 |
| 20260505195506 | 20 | 329 | 4.8 | 19.3 | 0.00 | 0.00 | 0.00 | 33 | 1014.6 |
| 20260505195005 | 18 | 341 | 8.0 | 12.9 | 0.00 | 0.00 | 0.00 | 36 | 1014.7 |
| 20260505191506 | 18 | 280 | 11.3 | 16.1 | 0.00 | 0.00 | 0.00 | 34 | 1014.8 |
| 20260505191005 | 19 | 314 | 9.7 | 16.1 | 0.00 | 0.00 | 0.00 | 30 | 1014.7 |
| 20260505190507 | 20 | 32 | 0.0 | 0.0 | 0.00 | 0.00 | 0.00 | 32 | 1014.7 |
| 20260505185507 | 20 | 1 | 3.2 | 11.3 | 0.00 | 0.00 | 0.00 | 32 | 1014.8 |
| 20260505184006 | 18 | 302 | 0.0 | 9.7 | 0.00 | 0.00 | 0.00 | 34 | 1014.8 |
| 20260505183506 | 18 | 302 | 1.6 | 11.3 | 0.00 | 0.00 | 0.00 | 34 | 1014.8 |
| 20260505183005 | 18 | 295 | 1.6 | 12.9 | 0.00 | 0.00 | 0.00 | 36 | 1014.8 |
| 20260505182006 | 18 | 307 | 1.6 | 12.9 | 0.00 | 0.00 | 0.00 | 38 | 1014.8 |
| 20260505181007 | 18 | 328 | 0.0 | 0.0 | 0.00 | 0.00 | 0.00 | 34 | 1014.8 |
| 20260505180507 | 18 | 328 | 1.6 | 16.1 | 0.00 | 0.00 | 0.00 | 36 | 1014.9 |
| 20260505180006 | 18 | 310 | 8.0 | 19.3 | 0.00 | 0.00 | 0.00 | 35 | 1014.8 |
| 20260505175505 | 18 | 287 | 4.8 | 19.3 | 0.00 | 0.00 | 0.00 | 34 | 1014.8 |
| 20260505174506 | 18 | 93 | 0.0 | 4.8 | 0.00 | 0.00 | 0.00 | 37 | 1014.8 |
| 20260505171505 | 17 | 170 | 0.0 | 0.0 | 0.00 | 0.00 | 0.00 | 36 | 1014.7 |
| 20260505171006 | 17 | 163 | 0.0 | 0.0 | 0.00 | 0.00 | 0.00 | 42 | 1014.7 |
| 20260505170006 | 16 | 143 | 0.0 | 0.0 | 0.00 | 0.00 | 0.00 | 43 | 1014.7 |
| 20260505163007 | 16 | 143 | 0.0 | 0.0 | 0.00 | 0.00 | 0.00 | 50 | 1014.6 |
| 20260505162006 | 15 | 143 | 0.0 | 0.0 | 0.00 | 0.00 | 0.00 | 50 | 1014.7 |
| 20260505152505 | 12 | 143 | 0.0 | 0.0 | 0.00 | 0.00 | 0.00 | 66 | 1014.6 |
| 20260505151005 | 11 | 143 | 0.0 | 0.0 | 0.00 | 0.00 | 0.00 | 71 | 1014.6 |
| 20260505150504 | 10 | 143 | 0.0 | 0.0 | 0.00 | 0.00 | 0.00 | 71 | 1014.6 |
| 20260505140505 | 6 | 143 | 0.0 | 0.0 | 0.00 | 0.00 | 0.00 | 80 | 1014.3 |
| 20260505125006 | 2 | 143 | 0.0 | 0.0 | 0.00 | 0.00 | 0.00 | 80 | 1013.7 |
| 20260505124506 | 2 | 143 | 0.0 | 0.0 | 0.00 | 0.00 | 0.00 | 79 | 1013.6 |
| 20260505124006 | 2 | 143 | 0.0 | 0.0 | 0.00 | 0.00 | 0.00 | 79 | 1013.6 |
| 20260505123507 | 2 | 143 | 0.0 | 0.0 | 0.00 | 0.00 | 0.00 | 79 | 1013.6 |
| 20260505122006 | 2 | 143 | 0.0 | 0.0 | 0.00 | 0.00 | 0.00 | 78 | 1013.5 |
| 20260505121508 | 2 | 143 | 0.0 | 0.0 | 0.00 | 0.00 | 0.00 | 78 | 1013.5 |
| 20260505121005 | 2 | 143 | 0.0 | 0.0 | 0.00 | 0.00 | 0.00 | 78 | 1013.3 |
| 20260505120507 | 2 | 143 | 0.0 | 0.0 | 0.00 | 0.00 | 0.00 | 79 | 1013.4 |
| 20260505114506 | 2 | 143 | 0.0 | 0.0 | 0.00 | 0.00 | 0.00 | 79 | 1013.3 |
| 20260505113005 | 2 | 158 | 0.0 | 0.0 | 0.00 | 0.00 | 0.00 | 79 | 1013.3 |
| 20260505112007 | 2 | 158 | 0.0 | 0.0 | 0.00 | 0.00 | 0.00 | 79 | 1013.5 |
| 20260505111007 | 2 | 158 | 0.0 | 0.0 | 0.00 | 0.00 | 0.00 | 78 | 1013.4 |
| 20260505110507 | 2 | 158 | 0.0 | 0.0 | 0.00 | 0.00 | 0.00 | 79 | 1013.3 |
| 20260505102006 | 2 | 158 | 0.0 | 0.0 | 0.00 | 0.00 | 0.00 | 77 | 1013.2 |
| 20260505101505 | 2 | 159 | 0.0 | 0.0 | 0.00 | 0.00 | 0.00 | 77 | 1013.2 |
| 20260505100005 | 3 | 158 | 0.0 | 0.0 | 0.00 | 0.00 | 0.00 | 77 | 1013.1 |
| 20260505095507 | 3 | 158 | 0.0 | 0.0 | 0.00 | 0.00 | 0.00 | 77 | 1013.0 |
| 20260505095006 | 3 | 158 | 0.0 | 0.0 | 0.00 | 0.00 | 0.00 | 77 | 1013.1 |
| 20260505093506 | 3 | 159 | 0.0 | 0.0 | 0.00 | 0.00 | 0.00 | 77 | 1012.9 |
| 20260505093006 | 3 | 159 | 0.0 | 0.0 | 0.00 | 0.00 | 0.00 | 77 | 1013.0 |
| 20260505092507 | 3 | 158 | 0.0 | 0.0 | 0.00 | 0.00 | 0.00 | 77 | 1013.0 |
| 20260505092005 | 3 | 158 | 0.0 | 0.0 | 0.00 | 0.00 | 0.00 | 77 | 1012.9 |
| 20260505091005 | 4 | 159 | 0.0 | 0.0 | 0.00 | 0.00 | 0.00 | 77 | 1012.9 |
| 20260505090006 | 4 | 159 | 0.0 | 0.0 | 0.00 | 0.00 | 0.00 | 77 | 1012.8 |
| 20260505084505 | 4 | 159 | 0.0 | 0.0 | 0.00 | 0.00 | 0.00 | 77 | 1012.9 |
| 20260505082007 | 4 | 160 | 0.0 | 0.0 | 0.00 | 0.00 | 0.00 | 74 | 1012.9 |
| 20260505080007 | 5 | 168 | 0.0 | 0.0 | 0.00 | 0.00 | 0.00 | 75 | 1012.9 |
| 20260505075505 | 5 | 167 | 0.0 | 0.0 | 0.00 | 0.00 | 0.00 | 75 | 1012.8 |
| 20260505075005 | 5 | 168 | 0.0 | 0.0 | 0.00 | 0.00 | 0.00 | 75 | 1012.8 |
| 20260505074505 | 5 | 168 | 0.0 | 0.0 | 0.00 | 0.00 | 0.00 | 75 | 1012.8 |
| 20260505073505 | 5 | 168 | 0.0 | 0.0 | 0.00 | 0.00 | 0.00 | 75 | 1012.8 |
| 20260505073005 | 5 | 168 | 0.0 | 0.0 | 0.00 | 0.00 | 0.00 | 74 | 1012.7 |
| 20260505071006 | 5 | 180 | 0.0 | 0.0 | 0.00 | 0.00 | 0.00 | 74 | 1012.7 |
| 20260505070506 | 5 | 186 | 0.0 | 0.0 | 0.00 | 0.00 | 0.00 | 73 | 1012.7 |
| 20260505070005 | 5 | 186 | 0.0 | 0.0 | 0.00 | 0.00 | 0.00 | 73 | 1012.5 |
| 20260505065505 | 6 | 186 | 0.0 | 0.0 | 0.00 | 0.00 | 0.00 | 73 | 1012.5 |
| 20260505065006 | 6 | 186 | 0.0 | 0.0 | 0.00 | 0.00 | 0.00 | 72 | 1012.5 |
| 20260505064505 | 6 | 186 | 0.0 | 0.0 | 0.00 | 0.00 | 0.00 | 72 | 1012.4 |
| 20260505064005 | 6 | 186 | 0.0 | 0.0 | 0.00 | 0.00 | 0.00 | 73 | 1012.5 |
| 20260505062004 | 6 | 186 | 0.0 | 0.0 | 0.00 | 0.00 | 0.00 | 70 | 1012.5 |
| 20260505061505 | 6 | 189 | 0.0 | 0.0 | 0.00 | 0.00 | 0.00 | 70 | 1012.5 |
| 20260505061005 | 6 | 189 | 0.0 | 0.0 | 0.00 | 0.00 | 0.00 | 70 | 1012.5 |
| 20260505060005 | 6 | 189 | 0.0 | 0.0 | 0.00 | 0.00 | 0.00 | 69 | 1012.5 |
| 20260505055504 | 7 | 189 | 0.0 | 0.0 | 0.00 | 0.00 | 0.00 | 69 | 1012.5 |
| 20260505054506 | 7 | 192 | 0.0 | 0.0 | 0.00 | 0.00 | 0.00 | 68 | 1012.5 |
| 20260505054005 | 7 | 197 | 0.0 | 0.0 | 0.00 | 0.00 | 0.00 | 66 | 1012.5 |
| 20260505053005 | 8 | 198 | 0.0 | 0.0 | 0.00 | 0.00 | 0.00 | 64 | 1012.4 |
| 20260505052006 | 8 | 198 | 0.0 | 0.0 | 0.00 | 0.00 | 0.00 | 63 | 1012.4 |
| 20260505051005 | 8 | 198 | 0.0 | 0.0 | 0.00 | 0.00 | 0.00 | 64 | 1012.5 |
| 20260505050505 | 8 | 198 | 0.0 | 0.0 | 0.00 | 0.00 | 0.00 | 64 | 1012.5 |
| 20260505041506 | 11 | 195 | 0.0 | 0.0 | 0.00 | 0.00 | 0.00 | 57 | 1012.5 |
| 20260505041008 | 11 | 195 | 0.0 | 0.0 | 0.00 | 0.00 | 0.00 | 56 | 1012.5 |
| 20260505040006 | 11 | 194 | 0.0 | 0.0 | 0.00 | 0.00 | 0.00 | 54 | 1012.4 |
| 20260505035506 | 12 | 220 | 0.0 | 0.0 | 0.00 | 0.00 | 0.00 | 53 | 1012.3 |
| 20260505034507 | 13 | 0 | 0.0 | 0.0 | 0.00 | 0.00 | 0.00 | 50 | 1012.2 |
| 20260505034006 | 13 | 0 | 0.0 | 0.0 | 0.00 | 0.00 | 0.00 | 50 | 1012.1 |
| 20260505033006 | 13 | 0 | 0.0 | 0.0 | 0.00 | 0.00 | 0.00 | 49 | 1012.0 |
| 20260505032007 | 15 | 0 | 0.0 | 0.0 | 0.00 | 0.00 | 0.00 | 47 | 1011.9 |
| 20260505031007 | 15 | 0 | 0.0 | 0.0 | 0.00 | 0.00 | 0.00 | 45 | 1011.7 |
| 20260505030506 | 15 | 0 | 0.0 | 0.0 | 0.00 | 0.00 | 0.00 | 43 | 1011.6 |
| 20260505023506 | 17 | 0 | 0.0 | 0.0 | 0.00 | 0.00 | 0.00 | 40 | 1011.2 |
| 20260505022507 | 18 | 0 | 0.0 | 0.0 | 0.00 | 0.00 | 0.00 | 38 | 1011.1 |
| 20260505021507 | 18 | 0 | 3.2 | 4.8 | 0.00 | 0.00 | 0.00 | 35 | 1011.0 |
| 20260505020506 | 19 | 5 | 4.8 | 4.8 | 0.00 | 0.00 | 0.00 | 35 | 1011.0 |
| 20260505020005 | 19 | 5 | 4.8 | 4.8 | 0.00 | 0.00 | 0.00 | 35 | 1010.9 |
| 20260505015006 | 19 | 6 | 4.8 | 9.7 | 0.00 | 0.00 | 0.00 | 34 | 1010.9 |
| 20260505014006 | 20 | 9 | 8.0 | 11.3 | 0.00 | 0.00 | 0.00 | 33 | 1010.9 |
| 20260505012506 | 18 | 11 | 8.0 | 11.3 | 0.00 | 0.00 | 0.00 | 35 | 1010.9 |
| 20260505012005 | 18 | 15 | 9.7 | 12.9 | 0.00 | 0.00 | 0.00 | 36 | 1010.9 |
| 20260505010007 | 19 | 16 | 8.0 | 11.3 | 0.00 | 0.00 | 0.00 | 33 | 1010.9 |
| 20260505005505 | 19 | 12 | 6.4 | 9.7 | 0.00 | 0.00 | 0.00 | 35 | 1010.8 |
| 20260505005006 | 19 | 10 | 4.8 | 9.7 | 0.00 | 0.00 | 0.00 | 34 | 1010.9 |
| 20260505004507 | 19 | 8 | 9.7 | 11.3 | 0.00 | 0.00 | 0.00 | 33 | 1010.8 |
| 20260505004006 | 19 | 19 | 8.0 | 11.3 | 0.00 | 0.00 | 0.00 | 32 | 1011.0 |
| 20260505002006 | 20 | 7 | 6.4 | 9.7 | 0.00 | 0.00 | 0.00 | 32 | 1010.9 |
| 20260505001507 | 20 | 5 | 4.8 | 11.3 | 0.00 | 0.00 | 0.00 | 32 | 1010.8 |
| 20260505000505 | 21 | 3 | 4.8 | 8.0 | 0.00 | 0.00 | 0.00 | 32 | 1010.8 |
| 20260505000006 | 21 | 10 | 8.0 | 11.3 | 0.00 | 0.00 | 0.00 | 30 | 1010.8 |
| 20260504234507 | 21 | 10 | 0.0 | 3.2 | 0.00 | 0.00 | 0.00 | 32 | 1010.7 |
| 20260504234005 | 22 | 10 | 3.2 | 8.0 | 0.00 | 0.00 | 0.00 | 31 | 1010.7 |
| 20260504233006 | 22 | 0 | 0.0 | 0.0 | 0.00 | 0.00 | 0.00 | 28 | 1010.7 |
| 20260504232005 | 23 | 1 | 8.0 | 29.0 | 0.00 | 0.00 | 0.00 | 25 | 1010.7 |
| 20260504231008 | 23 | 307 | 20.9 | 32.2 | 0.00 | 0.00 | 0.00 | 24 | 1010.6 |
| 20260504225006 | 23 | 329 | 14.5 | 25.7 | 0.00 | 0.00 | 0.00 | 22 | 1010.7 |
| 20260504224006 | 22 | 347 | 11.3 | 20.9 | 0.00 | 0.00 | 0.00 | 24 | 1010.8 |
| 20260504223507 | 22 | 340 | 4.8 | 22.5 | 0.00 | 0.00 | 0.00 | 27 | 1010.9 |
| 20260504222506 | 23 | 292 | 12.9 | 27.4 | 0.00 | 0.00 | 0.00 | 27 | 1011.0 |
| 20260504222005 | 22 | 315 | 14.5 | 24.1 | 0.00 | 0.00 | 0.00 | 25 | 1011.1 |
| 20260504215005 | 22 | 264 | 14.5 | 32.2 | 0.00 | 0.00 | 0.00 | 27 | 1011.3 |
| 20260504214505 | 22 | 301 | 16.1 | 22.5 | 0.00 | 0.00 | 0.00 | 27 | 1011.3 |
| 20260504213005 | 22 | 298 | 20.9 | 32.2 | 0.00 | 0.00 | 0.00 | 27 | 1011.5 |